Time;durP1;ratioP1;P1;durP2;ratioP2;P2;SDS_P1;SDS_P2;PMS_P1;PMS_P2;Temp;Humidity;BMP_temperature;BMP_pressure;BME280_temperature;BME280_humidity;BME280_pressure;Samples;Min_cycle;Max_cycle;Signal;HPM_P1;HPM_P2
2023/12/22 00:01:17;;;;;;;15.05;2.42;;;11.60;99.90;;;-144.20;100.00;62730.56;4197286;28;20029;-74
2023/12/22 00:03:17;;;;;;;9.82;2.90;;;11.60;99.90;;;-144.20;100.00;62730.56;4168132;28;20108;-74
2023/12/22 00:05:18;;;;;;;14.95;2.47;;;11.60;99.90;;;-144.20;100.00;62730.56;4169657;28;20029;-74
2023/12/22 00:07:20;;;;;;;15.88;3.13;;;11.70;99.90;;;-144.20;100.00;62730.56;4200538;28;20032;-74
2023/12/22 00:09:20;;;;;;;19.77;3.80;;;11.60;99.90;;;-144.20;100.00;62730.56;4159569;28;20074;-74
2023/12/22 00:11:21;;;;;;;17.77;3.20;;;11.60;99.90;;;-144.20;100.00;62730.56;4188068;28;20027;-74
2023/12/22 00:13:22;;;;;;;11.40;2.83;;;11.60;99.90;;;-144.20;100.00;62730.56;4169524;28;20045;-74
2023/12/22 00:15:23;;;;;;;14.60;3.42;;;11.60;99.90;;;-144.20;100.00;62730.56;4168208;28;20022;-74
2023/12/22 00:17:24;;;;;;;17.23;3.85;;;11.60;99.90;;;-144.20;100.00;62730.56;4169370;28;20049;-74
2023/12/22 00:19:25;;;;;;;13.70;4.07;;;11.60;99.90;;;-144.20;100.00;62730.56;4162453;28;20025;-74
2023/12/22 00:21:27;;;;;;;18.63;3.78;;;11.60;99.90;;;-144.20;100.00;62730.56;4167741;28;20043;-74
2023/12/22 00:23:28;;;;;;;16.35;4.40;;;11.60;99.90;;;-144.20;100.00;62730.56;4169381;28;20040;-74
2023/12/22 00:25:29;;;;;;;14.93;4.22;;;11.50;99.90;;;-144.20;100.00;62730.56;4151694;28;20033;-74
2023/12/22 00:27:30;;;;;;;10.93;3.05;;;11.40;99.90;;;-144.20;100.00;62730.56;4169151;28;20018;-74
2023/12/22 00:29:30;;;;;;;12.35;2.78;;;11.40;99.90;;;-144.20;100.00;62730.56;4164511;28;20021;-74
2023/12/22 00:31:31;;;;;;;15.32;3.95;;;11.30;99.90;;;-144.20;100.00;62730.56;4168079;28;20428;-74
2023/12/22 00:33:32;;;;;;;14.60;3.97;;;11.30;99.90;;;-144.20;100.00;62730.56;4200842;28;20032;-74
2023/12/22 00:35:35;;;;;;;20.27;4.18;;;11.20;99.90;;;-144.20;100.00;62730.56;4169051;28;20091;-74
2023/12/22 00:37:36;;;;;;;14.80;3.70;;;11.20;99.90;;;-144.20;100.00;62730.56;4167991;28;20037;-74
2023/12/22 00:39:37;;;;;;;15.40;3.80;;;11.20;99.90;;;-144.20;100.00;62730.56;4165738;28;20036;-74
2023/12/22 00:41:38;;;;;;;17.92;3.22;;;11.20;99.90;;;-144.20;100.00;62730.56;4168967;28;20033;-74
2023/12/22 00:43:38;;;;;;;19.90;3.50;;;11.20;99.90;;;-144.20;100.00;62730.56;4167850;28;20021;-74
2023/12/22 00:45:39;;;;;;;19.90;4.50;;;11.20;99.90;;;-144.20;100.00;62730.56;4167784;28;20068;-74
2023/12/22 00:47:40;;;;;;;22.17;3.67;;;11.20;99.90;;;-144.20;100.00;62730.56;4167782;28;20052;-74
2023/12/22 00:49:41;;;;;;;17.95;3.17;;;11.30;99.90;;;-144.20;100.00;62730.56;4167358;28;20064;-74
2023/12/22 00:51:42;;;;;;;16.45;3.05;;;11.20;99.90;;;-144.20;100.00;62730.56;4167637;28;20025;-74
2023/12/22 00:53:43;;;;;;;17.50;5.35;;;11.30;99.90;;;-144.20;100.00;62730.56;4167828;28;20039;-74
2023/12/22 00:55:43;;;;;;;15.35;3.42;;;11.30;99.90;;;-144.20;100.00;62730.56;4169100;28;20032;-74
2023/12/22 00:57:44;;;;;;;18.60;3.17;;;11.30;99.90;;;-144.20;100.00;62730.56;4167706;28;20477;-74
2023/12/22 00:59:47;;;;;;;15.35;4.18;;;11.30;99.90;;;-144.20;100.00;62730.56;4168703;28;20018;-74
2023/12/22 01:01:48;;;;;;;20.77;3.30;;;11.30;99.90;;;-144.20;100.00;62730.56;4168993;28;20040;-74
2023/12/22 01:03:49;;;;;;;14.48;3.63;;;11.20;99.90;;;-144.20;100.00;62730.56;4167398;28;20033;-74
2023/12/22 01:05:50;;;;;;;18.27;3.17;;;11.20;99.90;;;-144.20;100.00;62730.56;4167536;28;20525;-74
2023/12/22 01:07:51;;;;;;;19.15;4.22;;;11.20;99.90;;;-144.20;100.00;62730.56;4183981;28;20025;-74
2023/12/22 01:09:52;;;;;;;15.55;3.50;;;11.20;99.90;;;-144.20;100.00;62730.56;4183527;28;20032;-74
2023/12/22 01:11:53;;;;;;;19.52;4.55;;;11.20;99.90;;;-144.20;100.00;62730.56;4168625;28;20075;-74
2023/12/22 01:13:53;;;;;;;14.60;2.63;;;11.30;99.90;;;-144.20;100.00;62730.56;4167570;28;20033;-74
2023/12/22 01:15:54;;;;;;;15.98;2.83;;;11.20;99.90;;;-144.20;100.00;62730.56;4167576;28;20033;-74
2023/12/22 01:17:55;;;;;;;18.20;3.50;;;11.20;99.90;;;-144.20;100.00;62730.56;4168290;28;20099;-74
2023/12/22 01:19:56;;;;;;;13.77;3.28;;;11.20;99.90;;;-144.20;100.00;62730.56;4168384;28;20021;-74
2023/12/22 01:21:57;;;;;;;21.45;4.55;;;11.20;99.90;;;-144.20;100.00;62730.56;4168798;28;20096;-74
2023/12/22 01:23:58;;;;;;;10.90;2.47;;;11.20;99.90;;;-144.20;100.00;62730.56;4168519;28;20029;-74
2023/12/22 01:26:00;;;;;;;12.43;3.20;;;11.20;99.90;;;-144.20;100.00;62730.56;4168718;28;20469;-74
2023/12/22 01:28:01;;;;;;;14.02;2.58;;;11.20;99.90;;;-144.20;100.00;62730.56;4167555;28;20579;-74
2023/12/22 01:30:03;;;;;;;16.60;4.07;;;11.10;99.90;;;-144.20;100.00;62730.56;4165435;28;20033;-74
2023/12/22 01:32:04;;;;;;;14.63;3.13;;;11.20;99.90;;;-144.20;100.00;62730.56;4168483;28;20018;-74
2023/12/22 01:34:05;;;;;;;14.38;2.35;;;11.20;99.90;;;-144.20;100.00;62730.56;4168584;28;20478;-74
2023/12/22 01:36:06;;;;;;;15.32;2.15;;;11.20;99.90;;;-144.20;100.00;62730.56;4170277;28;20025;-74
2023/12/22 01:38:07;;;;;;;11.75;3.25;;;11.20;99.90;;;-144.20;100.00;62730.56;4168488;28;20040;-74
2023/12/22 01:40:08;;;;;;;9.73;2.67;;;11.10;99.90;;;-144.20;100.00;62730.56;4168371;28;20037;-74
2023/12/22 01:42:09;;;;;;;17.58;2.55;;;11.10;99.90;;;-144.20;100.00;62730.56;4167282;28;20092;-73
2023/12/22 01:44:10;;;;;;;14.02;2.85;;;11.10;99.90;;;-144.20;100.00;62730.56;4168721;28;20079;-74
2023/12/22 01:46:12;;;;;;;14.15;3.03;;;11.10;99.90;;;-144.20;100.00;62730.56;4167276;28;20021;-74
2023/12/22 01:48:13;;;;;;;11.98;2.42;;;11.10;99.90;;;-144.20;100.00;62730.56;4168115;28;20030;-74
2023/12/22 01:50:15;;;;;;;12.30;3.53;;;11.10;99.90;;;-144.20;100.00;62730.56;4155556;28;20036;-74
2023/12/22 01:52:17;;;;;;;14.15;2.67;;;11.10;99.90;;;-144.20;100.00;62730.56;4167328;28;20025;-74
2023/12/22 01:54:18;;;;;;;12.10;2.30;;;11.10;99.90;;;-144.20;100.00;62730.56;4168345;28;20076;-74
2023/12/22 01:56:19;;;;;;;16.38;2.92;;;11.10;99.90;;;-144.20;100.00;62730.56;4167382;28;20028;-74
2023/12/22 01:58:25;;;;;;;12.68;4.15;;;11.10;99.90;;;-144.20;100.00;62730.56;4167263;28;20087;-74
2023/12/22 02:00:26;;;;;;;8.43;2.60;;;11.10;99.90;;;-144.20;100.00;62730.56;4167138;28;20080;-74
2023/12/22 02:02:27;;;;;;;14.75;2.92;;;11.00;99.90;;;-144.20;100.00;62730.56;4167071;28;20037;-73
2023/12/22 02:04:31;;;;;;;10.18;2.45;;;10.90;99.90;;;-144.20;100.00;62730.56;4168012;28;20030;-74
2023/12/22 02:06:35;;;;;;;14.45;2.75;;;10.90;99.90;;;-144.20;100.00;62730.56;4200302;28;20066;-74
2023/12/22 02:08:36;;;;;;;11.18;1.75;;;10.90;99.90;;;-144.20;100.00;62730.56;4199921;28;20033;-74
2023/12/22 02:10:38;;;;;;;8.65;2.20;;;11.00;99.90;;;-144.20;100.00;62730.56;4150605;28;20041;-74
2023/12/22 02:12:39;;;;;;;9.13;1.95;;;11.00;99.90;;;-144.20;100.00;62730.56;4200128;28;20038;-74
2023/12/22 02:14:40;;;;;;;7.13;1.75;;;11.10;99.90;;;-144.20;100.00;62730.56;4168537;28;20177;-74
2023/12/22 02:16:54;;;;;;;9.48;1.92;;;11.00;99.90;;;-144.20;100.00;62730.56;4166825;28;20167;-74
2023/12/22 02:18:57;;;;;;;12.98;2.83;;;11.00;99.90;;;-144.20;100.00;62730.56;4164580;28;20505;-74
2023/12/22 02:20:58;;;;;;;15.27;2.72;;;11.00;99.90;;;-144.20;100.00;62730.56;4182014;28;20565;-74
2023/12/22 02:22:59;;;;;;;9.20;2.85;;;10.90;99.90;;;-144.20;100.00;62730.56;4150549;28;20030;-74
2023/12/22 02:24:59;;;;;;;9.60;1.90;;;10.90;99.90;;;-144.20;100.00;62730.56;4167129;28;20022;-74
2023/12/22 02:27:23;;;;;;;12.63;2.00;;;11.00;99.90;;;-144.20;100.00;62730.56;4167832;28;20404;-74
2023/12/22 02:29:25;;;;;;;9.18;2.20;;;11.10;99.90;;;-144.20;100.00;62730.56;4168629;28;20021;-74
2023/12/22 02:31:44;;;;;;;7.45;1.30;;;11.10;99.90;;;-144.20;100.00;62730.56;4203018;28;20506;-73
2023/12/22 02:33:47;;;;;;;11.63;2.25;;;11.10;99.90;;;-144.20;100.00;62730.56;4201750;28;20033;-74
2023/12/22 02:35:50;;;;;;;12.05;2.15;;;11.10;99.90;;;-144.20;100.00;62730.56;4186158;28;20029;-74
2023/12/22 02:37:52;;;;;;;8.27;2.22;;;11.00;99.90;;;-144.20;100.00;62730.56;4202902;28;20028;-74
2023/12/22 02:39:53;;;;;;;10.70;2.22;;;11.00;99.90;;;-144.20;100.00;62730.56;4202953;28;20020;-74
2023/12/22 02:41:54;;;;;;;8.82;2.63;;;10.90;99.90;;;-144.20;100.00;62730.56;4169574;28;20132;-74
2023/12/22 02:43:56;;;;;;;6.85;1.50;;;10.90;99.90;;;-144.20;100.00;62730.56;4169930;28;20026;-74
2023/12/22 02:45:56;;;;;;;9.57;2.00;;;10.90;99.90;;;-144.20;100.00;62730.56;4169737;28;20049;-74
2023/12/22 02:47:58;;;;;;;9.93;1.33;;;10.90;99.90;;;-144.20;100.00;62730.56;4169405;28;20032;-74
2023/12/22 02:49:58;;;;;;;6.55;1.27;;;10.80;99.90;;;-144.20;100.00;62730.56;4160640;28;20056;-74
2023/12/22 02:51:59;;;;;;;8.75;1.33;;;10.80;99.90;;;-144.20;100.00;62730.56;4153044;28;20038;-74
2023/12/22 02:54:00;;;;;;;7.28;1.58;;;10.80;99.90;;;-144.20;100.00;62730.56;4170761;28;20416;-74
2023/12/22 02:56:02;;;;;;;9.32;1.30;;;10.70;99.90;;;-144.20;100.00;62730.56;4169907;28;20083;-74
2023/12/22 02:58:03;;;;;;;7.13;1.48;;;10.70;99.90;;;-144.20;100.00;62730.56;4169257;28;20029;-74
2023/12/22 03:00:07;;;;;;;8.88;1.88;;;10.70;99.90;;;-144.20;100.00;62730.56;4170578;28;20029;-74
2023/12/22 03:02:07;;;;;;;9.07;1.97;;;10.70;99.90;;;-144.20;100.00;62730.56;4169246;28;20105;-74
2023/12/22 03:04:08;;;;;;;7.72;1.58;;;10.70;99.90;;;-144.20;100.00;62730.56;4170362;28;20268;-74
2023/12/22 03:06:09;;;;;;;6.40;1.02;;;10.70;99.90;;;-144.20;100.00;62730.56;4185627;28;20028;-74
2023/12/22 03:08:10;;;;;;;8.35;1.52;;;10.70;99.90;;;-144.20;100.00;62730.56;4185633;28;20025;-74
2023/12/22 03:10:11;;;;;;;9.88;1.48;;;10.80;99.90;;;-144.20;100.00;62730.56;4169225;28;20025;-74
2023/12/22 03:12:12;;;;;;;9.00;1.40;;;10.80;99.90;;;-144.20;100.00;62730.56;4169347;28;20392;-74
2023/12/22 03:14:12;;;;;;;7.57;1.08;;;10.90;99.90;;;-144.20;100.00;62730.56;4169217;28;20079;-74
2023/12/22 03:16:13;;;;;;;8.35;1.50;;;10.90;99.90;;;-144.20;100.00;62730.56;4202454;28;20016;-74
2023/12/22 03:18:14;;;;;;;6.90;0.90;;;10.90;99.90;;;-144.20;100.00;62730.56;4168281;28;20046;-73
2023/12/22 03:20:15;;;;;;;5.15;1.42;;;11.00;99.90;;;-144.20;100.00;62730.56;4170262;28;20079;-74
2023/12/22 03:22:16;;;;;;;5.70;1.10;;;11.00;99.90;;;-144.20;100.00;62730.56;4170184;28;20037;-74
2023/12/22 03:24:22;;;;;;;5.05;0.93;;;11.00;99.90;;;-144.20;100.00;62730.56;4169015;28;20410;-74
2023/12/22 03:26:23;;;;;;;6.35;1.40;;;11.10;99.90;;;-144.20;100.00;62730.56;4170371;28;20025;-74
2023/12/22 03:28:23;;;;;;;4.53;1.13;;;11.10;99.90;;;-144.20;100.00;62730.56;4170232;28;20028;-74
2023/12/22 03:30:24;;;;;;;4.53;1.10;;;11.10;99.90;;;-144.20;100.00;62730.56;4170914;28;20024;-74
2023/12/22 03:32:25;;;;;;;5.25;1.15;;;11.00;99.90;;;-144.20;100.00;62730.56;4169132;28;20026;-74
2023/12/22 03:34:26;;;;;;;5.53;0.90;;;11.00;99.90;;;-144.20;100.00;62730.56;4168787;28;20046;-74
2023/12/22 03:36:27;;;;;;;5.15;0.80;;;10.90;99.90;;;-144.20;100.00;62730.56;4170057;28;20512;-74
2023/12/22 03:38:27;;;;;;;4.07;0.95;;;10.90;99.90;;;-144.20;100.00;62730.56;4170050;28;20511;-74
2023/12/22 03:40:29;;;;;;;3.03;0.68;;;10.80;99.90;;;-144.20;100.00;62730.56;4152338;28;20032;-74
2023/12/22 03:42:30;;;;;;;2.40;0.50;;;10.70;99.90;;;-144.20;100.00;62730.56;4158702;28;20033;-74
2023/12/22 03:44:32;;;;;;;3.05;0.57;;;10.70;99.90;;;-144.20;100.00;62730.56;4169072;28;20025;-74
2023/12/22 03:46:33;;;;;;;3.92;1.17;;;10.80;99.90;;;-144.20;100.00;62730.56;4168705;28;20034;-74
2023/12/22 03:48:34;;;;;;;4.65;1.05;;;10.90;99.90;;;-144.20;100.00;62730.56;4168486;28;20393;-74
2023/12/22 03:50:35;;;;;;;4.93;0.75;;;11.00;99.90;;;-144.20;100.00;62730.56;4160132;28;20022;-73
2023/12/22 03:52:36;;;;;;;3.03;0.47;;;11.00;99.90;;;-144.20;100.00;62730.56;4168621;28;20029;-74
2023/12/22 03:54:36;;;;;;;2.85;0.60;;;11.10;99.90;;;-144.20;100.00;62730.56;4168504;28;20425;-73
2023/12/22 03:56:37;;;;;;;6.28;0.43;;;11.10;99.90;;;-144.20;100.00;62730.56;4168580;28;20034;-73
2023/12/22 03:58:38;;;;;;;4.53;0.70;;;11.10;99.90;;;-144.20;100.00;62730.56;4168628;28;20505;-74
2023/12/22 04:00:39;;;;;;;1.65;0.40;;;11.20;99.90;;;-144.20;100.00;62730.56;4168488;28;20099;-74
2023/12/22 04:02:40;;;;;;;3.72;0.65;;;11.20;99.90;;;-144.20;100.00;62730.56;4169566;28;20099;-74
2023/12/22 04:04:41;;;;;;;2.67;0.60;;;11.10;99.90;;;-144.20;100.00;62730.56;4169177;28;20021;-74
2023/12/22 04:06:42;;;;;;;2.35;1.23;;;11.10;99.90;;;-144.20;100.00;62730.56;4169640;28;20068;-74
2023/12/22 04:08:43;;;;;;;3.90;0.40;;;11.20;99.90;;;-144.20;100.00;62730.56;4151952;28;20029;-74
2023/12/22 04:10:44;;;;;;;1.98;0.45;;;11.10;99.90;;;-144.20;100.00;62730.56;4169577;28;20374;-73
2023/12/22 04:12:45;;;;;;;4.13;0.95;;;11.20;99.90;;;-144.20;100.00;62730.56;4168232;28;20018;-74
2023/12/22 04:14:46;;;;;;;1.98;0.30;;;11.20;99.90;;;-144.20;100.00;62730.56;4168327;28;20044;-74
2023/12/22 04:16:47;;;;;;;4.70;0.75;;;11.20;99.90;;;-144.20;100.00;62730.56;4169473;28;20029;-74
2023/12/22 04:18:47;;;;;;;4.95;0.63;;;11.20;99.90;;;-144.20;100.00;62730.56;4168005;28;20116;-74
2023/12/22 04:20:51;;;;;;;1.98;0.35;;;11.20;99.90;;;-144.20;100.00;62730.56;4168007;28;20026;-74
2023/12/22 04:22:52;;;;;;;4.63;0.45;;;11.10;99.90;;;-144.20;100.00;62730.56;4169440;28;20038;-74
2023/12/22 04:24:53;;;;;;;2.17;0.30;;;11.10;99.90;;;-144.20;100.00;62730.56;4167970;28;20422;-74
2023/12/22 04:26:54;;;;;;;3.42;0.50;;;11.10;99.90;;;-144.20;100.00;62730.56;4169598;28;20036;-74
2023/12/22 04:28:55;;;;;;;2.35;0.30;;;11.10;99.90;;;-144.20;100.00;62730.56;4169119;28;20406;-74
2023/12/22 04:30:55;;;;;;;3.67;0.73;;;11.20;99.90;;;-144.20;100.00;62730.56;4184300;28;20076;-74
2023/12/22 04:32:56;;;;;;;3.78;0.60;;;11.20;99.90;;;-144.20;100.00;62730.56;4167996;28;20030;-74
2023/12/22 04:34:57;;;;;;;3.05;0.90;;;11.20;99.90;;;-144.20;100.00;62730.56;4200885;28;20048;-74
2023/12/22 04:36:58;;;;;;;2.88;0.93;;;11.20;99.90;;;-144.20;100.00;62730.56;4167893;28;20040;-74
2023/12/22 04:38:59;;;;;;;1.20;0.40;;;11.20;99.90;;;-144.20;100.00;62730.56;4185851;28;20032;-74
2023/12/22 04:40:59;;;;;;;1.50;0.70;;;11.30;99.90;;;-144.20;100.00;62730.56;4151374;28;20494;-74
2023/12/22 04:43:00;;;;;;;2.15;0.55;;;11.20;99.90;;;-144.20;100.00;62730.56;4161780;28;20481;-74
2023/12/22 04:45:02;;;;;;;6.00;0.88;;;11.20;99.90;;;-144.20;100.00;62730.56;4151532;28;20045;-74
2023/12/22 04:47:03;;;;;;;2.20;0.40;;;11.20;99.90;;;-144.20;100.00;62730.56;4156330;28;20033;-74
2023/12/22 04:49:04;;;;;;;2.53;0.68;;;11.20;99.90;;;-144.20;100.00;62730.56;4166697;28;20079;-74
2023/12/22 04:51:04;;;;;;;3.85;0.75;;;11.10;99.90;;;-144.20;100.00;62730.56;4194680;28;20021;-74
2023/12/22 04:53:05;;;;;;;3.05;0.30;;;11.10;99.90;;;-144.20;100.00;62730.56;4168242;28;20021;-74
2023/12/22 04:55:06;;;;;;;1.33;0.55;;;11.10;99.90;;;-144.20;100.00;62730.56;4167940;28;20037;-74
2023/12/22 04:57:07;;;;;;;2.53;0.73;;;11.10;99.90;;;-144.20;100.00;62730.56;4168997;28;20040;-74
2023/12/22 04:59:08;;;;;;;2.42;0.35;;;11.10;99.90;;;-144.20;100.00;62730.56;4167703;28;20049;-74
2023/12/22 05:01:09;;;;;;;3.70;0.68;;;11.20;99.90;;;-144.20;100.00;62730.56;4167358;28;20512;-74
2023/12/22 05:03:10;;;;;;;1.48;0.45;;;11.20;99.90;;;-144.20;100.00;62730.56;4168667;28;20021;-74
2023/12/22 05:05:11;;;;;;;1.67;0.60;;;11.10;99.90;;;-144.20;100.00;62730.56;4184359;28;20021;-74
2023/12/22 05:07:12;;;;;;;2.55;0.70;;;11.10;99.90;;;-144.20;100.00;62730.56;4151170;28;20141;-74
2023/12/22 05:09:13;;;;;;;1.90;0.40;;;11.10;99.90;;;-144.20;100.00;62730.56;4165645;28;20022;-74
2023/12/22 05:11:14;;;;;;;1.38;0.28;;;11.00;99.90;;;-144.20;100.00;62730.56;4167641;28;20021;-74
2023/12/22 05:13:15;;;;;;;1.92;0.50;;;11.10;99.90;;;-144.20;100.00;62730.56;4167575;28;20029;-74
2023/12/22 05:15:16;;;;;;;0.55;0.20;;;11.10;99.90;;;-144.20;100.00;62730.56;4168759;28;20030;-74
2023/12/22 05:17:17;;;;;;;1.55;0.60;;;11.10;99.90;;;-144.20;100.00;62730.56;4167455;28;20154;-74
2023/12/22 05:19:18;;;;;;;1.35;0.30;;;11.00;99.90;;;-144.20;100.00;62730.56;4168436;28;20029;-74
2023/12/22 05:21:18;;;;;;;2.28;0.28;;;11.10;99.90;;;-144.20;100.00;62730.56;4167543;28;20037;-74
2023/12/22 05:23:19;;;;;;;2.72;0.50;;;11.10;99.90;;;-144.20;100.00;62730.56;4200837;28;20029;-74
2023/12/22 05:25:20;;;;;;;1.50;0.40;;;11.20;99.90;;;-144.20;100.00;62730.56;4167432;28;20037;-74
2023/12/22 05:27:21;;;;;;;2.35;0.32;;;11.20;99.90;;;-144.20;100.00;62730.56;4183742;28;20029;-73
2023/12/22 05:29:22;;;;;;;3.05;0.80;;;11.20;99.90;;;-144.20;100.00;62730.56;4165952;28;20025;-74
2023/12/22 05:31:23;;;;;;;1.17;0.35;;;11.20;99.90;;;-144.20;100.00;62730.56;4168597;28;20104;-74
2023/12/22 05:33:23;;;;;;;3.50;1.13;;;11.10;99.90;;;-144.20;100.00;62730.56;4183828;28;20029;-74
2023/12/22 05:35:24;;;;;;;0.70;0.20;;;11.10;99.90;;;-144.20;100.00;62730.56;4167574;28;20053;-74
2023/12/22 05:37:25;;;;;;;2.58;0.30;;;11.00;99.90;;;-144.20;100.00;62730.56;4178390;28;20026;-74
2023/12/22 05:39:26;;;;;;;2.58;0.63;;;11.00;99.90;;;-144.20;100.00;62730.56;4168488;28;20026;-74
2023/12/22 05:41:28;;;;;;;2.88;0.40;;;11.00;99.90;;;-144.20;100.00;62730.56;4168420;28;20033;-74
2023/12/22 05:43:29;;;;;;;2.10;0.35;;;11.00;99.90;;;-144.20;100.00;62730.56;4167103;28;20024;-74
2023/12/22 05:45:30;;;;;;;2.42;0.35;;;10.90;99.90;;;-144.20;100.00;62730.56;4168460;28;20029;-74
2023/12/22 05:47:31;;;;;;;2.78;0.70;;;10.90;99.90;;;-144.20;100.00;62730.56;4167251;28;20044;-74
2023/12/22 05:49:32;;;;;;;1.65;0.40;;;11.00;99.90;;;-144.20;100.00;62730.56;4194895;28;20477;-74
2023/12/22 05:51:40;;;;;;;0.95;0.20;;;11.00;99.90;;;-144.20;100.00;62730.56;4166024;28;20026;-74
2023/12/22 05:53:41;;;;;;;3.42;0.20;;;11.10;99.90;;;-144.20;100.00;62730.56;4168700;28;20033;-74
2023/12/22 05:55:42;;;;;;;3.28;0.40;;;11.10;99.90;;;-144.20;100.00;62730.56;4167226;28;20033;-74
2023/12/22 05:57:43;;;;;;;0.95;0.20;;;11.20;99.90;;;-144.20;100.00;62730.56;4168600;28;20033;-74
2023/12/22 05:59:43;;;;;;;2.17;0.30;;;11.20;99.90;;;-144.20;100.00;62730.56;4168185;28;20025;-74
2023/12/22 06:01:44;;;;;;;1.00;0.30;;;11.20;99.90;;;-144.20;100.00;62730.56;4167217;28;20055;-74
2023/12/22 06:03:46;;;;;;;1.15;0.30;;;11.20;99.90;;;-144.20;100.00;62730.56;4166981;28;20602;-74
2023/12/22 06:05:48;;;;;;;1.08;0.30;;;11.20;99.90;;;-144.20;100.00;62730.56;4203009;28;20432;-74
2023/12/22 06:07:49;;;;;;;1.23;0.40;;;11.20;99.90;;;-144.20;100.00;62730.56;4171267;28;20025;-74
2023/12/22 06:09:50;;;;;;;1.95;0.30;;;11.20;99.90;;;-144.20;100.00;62730.56;4167841;28;20025;-74
2023/12/22 06:11:51;;;;;;;5.15;0.70;;;11.30;99.90;;;-144.20;100.00;62730.56;4171479;28;20025;-74
2023/12/22 06:13:51;;;;;;;2.85;0.50;;;11.20;99.90;;;-144.20;100.00;62730.56;4170180;28;20039;-73
2023/12/22 06:15:52;;;;;;;1.23;0.30;;;11.20;99.90;;;-144.20;100.00;62730.56;4170107;28;20037;-74
2023/12/22 06:17:53;;;;;;;1.25;0.32;;;11.20;99.90;;;-144.20;100.00;62730.56;4169844;28;20056;-74
2023/12/22 06:19:54;;;;;;;0.50;0.22;;;11.20;99.90;;;-144.20;100.00;62730.56;4156822;28;20026;-74
2023/12/22 06:21:55;;;;;;;1.23;0.22;;;11.20;99.90;;;-144.20;100.00;62730.56;4170012;28;20025;-74
2023/12/22 06:23:55;;;;;;;1.05;0.20;;;11.10;99.90;;;-144.20;100.00;62730.56;4153634;28;20014;-74
2023/12/22 06:25:56;;;;;;;1.33;0.63;;;11.10;99.90;;;-144.20;100.00;62730.56;4169561;28;20037;-74
2023/12/22 06:27:57;;;;;;;0.95;0.60;;;11.00;99.90;;;-144.20;100.00;62730.56;4170089;28;20025;-74
2023/12/22 06:29:58;;;;;;;2.97;0.30;;;11.10;99.90;;;-144.20;100.00;62730.56;4169358;28;20033;-74
2023/12/22 06:31:59;;;;;;;2.50;0.40;;;11.10;99.90;;;-144.20;100.00;62730.56;4202953;28;20100;-74
2023/12/22 06:34:01;;;;;;;1.10;0.17;;;11.10;99.90;;;-144.20;100.00;62730.56;4169753;28;20092;-74
2023/12/22 06:36:03;;;;;;;2.28;0.35;;;11.10;99.90;;;-144.20;100.00;62730.56;4186539;28;20025;-74
2023/12/22 06:38:06;;;;;;;1.48;0.30;;;11.10;99.90;;;-144.20;100.00;62730.56;4170036;28;20041;-74
2023/12/22 06:40:07;;;;;;;2.22;0.40;;;11.10;99.90;;;-144.20;100.00;62730.56;4161817;28;20042;-74
2023/12/22 06:42:10;;;;;;;1.20;0.40;;;11.00;99.90;;;-144.20;100.00;62730.56;4170380;28;20037;-74
2023/12/22 06:44:11;;;;;;;0.93;0.32;;;11.00;99.90;;;-144.20;100.00;62730.56;4169962;28;20045;-74
2023/12/22 06:46:19;;;;;;;2.95;0.50;;;11.10;99.90;;;-144.20;100.00;62730.56;4153187;28;20033;-74
2023/12/22 06:48:20;;;;;;;1.52;0.50;;;11.10;99.90;;;-144.20;100.00;62730.56;4169299;28;20489;-74
2023/12/22 06:50:20;;;;;;;2.47;0.90;;;11.10;99.90;;;-144.20;100.00;62730.56;4169518;28;20032;-74
2023/12/22 06:52:21;;;;;;;2.70;0.50;;;11.10;99.90;;;-144.20;100.00;62730.56;4170283;28;20032;-74
2023/12/22 06:54:22;;;;;;;2.35;0.40;;;11.10;99.90;;;-144.20;100.00;62730.56;4169786;28;20033;-74
2023/12/22 06:56:32;;;;;;;2.25;0.43;;;11.10;99.90;;;-144.20;100.00;62730.56;4169771;28;20026;-74
2023/12/22 06:58:32;;;;;;;1.48;0.43;;;11.10;99.90;;;-144.20;100.00;62730.56;4169764;28;20087;-74
2023/12/22 07:00:33;;;;;;;2.60;0.40;;;11.10;99.90;;;-144.20;100.00;62730.56;4164585;28;20029;-74
2023/12/22 07:02:34;;;;;;;0.88;0.50;;;11.10;99.90;;;-144.20;100.00;62730.56;4152940;28;20038;-74
2023/12/22 07:04:35;;;;;;;0.50;0.25;;;11.00;99.90;;;-144.20;100.00;62730.56;4170235;28;20025;-74
2023/12/22 07:06:36;;;;;;;3.00;0.25;;;10.90;99.90;;;-144.20;100.00;62730.56;4169511;28;20022;-74
2023/12/22 07:08:36;;;;;;;2.55;0.40;;;10.80;99.90;;;-144.20;100.00;62730.56;4169422;28;20120;-74
2023/12/22 07:10:37;;;;;;;2.78;0.40;;;10.70;99.90;;;-144.20;100.00;62730.56;4170420;28;20035;-74
2023/12/22 07:12:41;;;;;;;3.08;0.52;;;10.70;99.90;;;-144.20;100.00;62730.56;4170483;28;20382;-74
2023/12/22 07:14:42;;;;;;;3.13;0.50;;;10.70;99.90;;;-144.20;100.00;62730.56;4169157;28;20525;-74
2023/12/22 07:16:44;;;;;;;1.48;0.50;;;10.70;99.90;;;-144.20;100.00;62730.56;4170050;28;20036;-74
2023/12/22 07:18:45;;;;;;;3.15;0.38;;;10.70;99.90;;;-144.20;100.00;62730.56;4168662;28;20481;-74
2023/12/22 07:20:46;;;;;;;1.60;0.40;;;10.60;99.90;;;-144.20;100.00;62730.56;4169189;28;20026;-74
2023/12/22 07:22:46;;;;;;;1.45;0.95;;;10.50;99.90;;;-144.20;100.00;62730.56;4170084;28;20029;-74
2023/12/22 07:24:49;;;;;;;2.50;0.40;;;10.40;99.90;;;-144.20;100.00;62730.56;4170652;28;20091;-74
2023/12/22 07:26:50;;;;;;;1.67;0.50;;;10.30;99.90;;;-144.20;100.00;62730.56;4169257;28;20104;-74
2023/12/22 07:28:51;;;;;;;1.98;0.40;;;10.20;99.90;;;-144.20;100.00;62730.56;4170340;28;20024;-74
2023/12/22 07:30:53;;;;;;;2.15;0.32;;;10.20;99.90;;;-144.20;100.00;62730.56;4169974;28;20025;-74
2023/12/22 07:32:54;;;;;;;1.58;0.20;;;10.20;99.90;;;-144.20;100.00;62730.56;4168853;28;20059;-74
2023/12/22 07:34:55;;;;;;;3.08;0.40;;;10.30;99.90;;;-144.20;100.00;62730.56;4169047;28;20448;-74
2023/12/22 07:36:56;;;;;;;5.32;0.68;;;10.40;99.90;;;-144.20;100.00;62730.56;4170130;28;20033;-74
2023/12/22 07:38:57;;;;;;;2.92;0.80;;;10.40;99.90;;;-144.20;100.00;62730.56;4185197;28;20090;-74
2023/12/22 07:40:58;;;;;;;2.83;0.50;;;10.50;99.90;;;-144.20;100.00;62730.56;4160198;28;20512;-74
2023/12/22 07:42:59;;;;;;;3.92;0.60;;;10.50;99.90;;;-144.20;100.00;62730.56;4170067;28;20370;-74
2023/12/22 07:45:00;;;;;;;3.90;0.70;;;10.50;99.90;;;-144.20;100.00;62730.56;4169757;28;20520;-74
2023/12/22 07:47:02;;;;;;;3.22;0.80;;;10.50;99.90;;;-144.20;100.00;62730.56;4168667;28;20026;-74
2023/12/22 07:49:03;;;;;;;3.08;0.55;;;10.50;99.90;;;-144.20;100.00;62730.56;4169836;28;20105;-74
2023/12/22 07:51:04;;;;;;;2.63;0.65;;;10.50;99.90;;;-144.20;100.00;62730.56;4169628;28;20037;-74
2023/12/22 07:53:05;;;;;;;6.63;1.63;;;10.60;99.90;;;-144.20;100.00;62730.56;4167895;28;20036;-74
2023/12/22 07:55:11;;;;;;;4.32;1.10;;;10.60;99.90;;;-144.20;100.00;62730.56;4201523;28;20047;-74
2023/12/22 07:57:12;;;;;;;5.90;1.40;;;10.60;99.90;;;-144.20;100.00;62730.56;4168469;28;20029;-74
2023/12/22 07:59:12;;;;;;;6.50;0.95;;;10.60;99.90;;;-144.20;100.00;62730.56;4168461;28;20025;-74
2023/12/22 08:01:15;;;;;;;5.60;1.02;;;10.70;99.90;;;-144.20;100.00;62730.56;4165376;28;20018;-74
2023/12/22 08:03:16;;;;;;;8.93;1.60;;;10.70;99.90;;;-144.20;100.00;62730.56;4169362;28;20492;-74
2023/12/22 08:05:17;;;;;;;10.10;1.38;;;10.70;99.90;;;-144.20;100.00;62730.56;4201575;28;20020;-74
2023/12/22 08:07:17;;;;;;;7.53;1.85;;;10.70;99.90;;;-144.20;100.00;62730.56;4169636;28;20044;-74
2023/12/22 08:09:18;;;;;;;7.97;1.40;;;10.70;99.90;;;-144.20;100.00;62730.56;4167964;28;20033;-74
2023/12/22 08:11:19;;;;;;;16.15;2.35;;;10.70;99.90;;;-144.20;100.00;62730.56;4168214;28;20032;-74
2023/12/22 08:13:20;;;;;;;9.27;2.20;;;10.70;99.90;;;-144.20;100.00;62730.56;4168362;28;20448;-74